Time;durP1;ratioP1;P1;durP2;ratioP2;P2;SDS_P1;SDS_P2;PMS_P1;PMS_P2;Temp;Humidity;BMP_temperature;BMP_pressure;BME280_temperature;BME280_humidity;BME280_pressure;Samples;Min_cycle;Max_cycle;Signal;HPM_P1;HPM_P2
2023/09/22 00:04:56;;;;;;;4.93;3.20;;;;;;;14.17;100.00;99577.94;5034178;28;20393;-78
2023/09/22 00:07:30;;;;;;;3.92;3.50;;;;;;;14.21;100.00;99589.06;5050158;28;20155;-78
2023/09/22 00:09:59;;;;;;;4.03;3.63;;;;;;;14.21;100.00;99578.25;5047308;28;20032;-78
2023/09/22 00:12:25;;;;;;;4.60;3.90;;;;;;;14.19;100.00;99591.19;5046990;28;20175;-78
2023/09/22 00:14:54;;;;;;;4.60;4.20;;;;;;;14.21;100.00;99589.06;5024311;28;20071;-78
2023/09/22 00:17:49;;;;;;;5.75;4.93;;;;;;;14.15;100.00;99588.19;5045413;28;20025;-77
2023/09/22 00:20:24;;;;;;;5.32;4.82;;;;;;;14.08;100.00;99598.38;4986003;28;20160;-78
2023/09/22 00:23:05;;;;;;;7.07;6.00;;;;;;;14.04;100.00;99592.66;4984373;28;20034;-78
2023/09/22 00:25:41;;;;;;;9.00;6.50;;;;;;;14.03;100.00;99607.25;4999052;28;20041;-77
2023/09/22 00:30:55;;;;;;;7.78;6.97;;;;;;;14.19;100.00;99607.44;5040607;28;20488;-78
2023/09/22 00:34:14;;;;;;;9.77;8.57;;;;;;;14.01;100.00;99605.88;5044960;28;20051;-77
2023/09/22 00:36:39;;;;;;;10.35;9.07;;;;;;;13.88;100.00;99607.03;4947586;28;20027;-78
2023/09/22 00:39:05;;;;;;;10.55;8.85;;;;;;;13.86;100.00;99609.19;4930149;29;20109;-78
2023/09/22 00:41:36;;;;;;;10.15;9.05;;;;;;;13.86;100.00;99618.09;4932848;29;20035;-77
2023/09/22 00:46:57;;;;;;;11.80;9.88;;;;;;;13.94;100.00;99611.47;4941619;29;20141;-77
2023/09/22 00:49:25;;;;;;;11.98;10.35;;;;;;;13.93;100.00;99623.34;4944288;28;20031;-77
2023/09/22 00:52:12;;;;;;;12.07;10.70;;;;;;;13.91;100.00;99622.78;4945983;29;20035;-77
2023/09/22 00:54:43;;;;;;;12.25;10.95;;;;;;;13.78;100.00;99626.66;4935393;29;20034;-77
2023/09/22 00:57:08;;;;;;;11.80;10.07;;;;;;;13.70;100.00;99617.09;4952395;28;20035;-77
2023/09/22 00:59:46;;;;;;;13.32;10.75;;;;;;;13.71;100.00;99624.13;4913018;29;20043;-77
2023/09/22 01:02:22;;;;;;;11.93;10.60;;;;;;;13.75;100.00;99624.44;4946217;28;20086;-77
2023/09/22 01:05:08;;;;;;;13.25;10.95;;;;;;;13.86;100.00;99630.81;5049406;23;20036;-77
2023/09/22 01:07:48;;;;;;;14.05;11.55;;;;;;;13.70;100.00;99627.91;5057998;28;20041;-77
2023/09/22 01:10:36;;;;;;;14.85;10.98;;;;;;;13.78;100.00;99634.78;5063697;28;20025;-77
2023/09/22 01:13:16;;;;;;;14.30;11.75;;;;;;;13.71;100.00;99644.94;5064442;28;20029;-78
2023/09/22 01:15:42;;;;;;;14.05;11.85;;;;;;;13.63;100.00;99648.88;5035175;28;20048;-77
2023/09/22 01:18:17;;;;;;;14.98;13.00;;;;;;;13.61;100.00;99648.28;5070485;28;20033;-77
2023/09/22 01:20:46;;;;;;;15.65;12.60;;;;;;;13.57;100.00;99644.47;5073646;28;20041;-78
2023/09/22 01:23:24;;;;;;;13.57;10.98;;;;;;;13.58;100.00;99652.31;5063796;28;20035;-77
2023/09/22 01:26:10;;;;;;;13.25;10.80;;;;;;;13.65;100.00;99646.75;5077283;28;20105;-78
2023/09/22 01:28:40;;;;;;;15.88;11.30;;;;;;;13.64;100.00;99645.94;5077132;28;20039;-78
2023/09/22 01:31:11;;;;;;;13.32;10.93;;;;;;;13.64;100.00;99667.56;5075996;28;20107;-78
2023/09/22 01:33:49;;;;;;;12.13;10.20;;;;;;;13.70;100.00;99654.09;5064016;28;20075;-78
2023/09/22 01:38:46;;;;;;;13.18;9.60;;;;;;;13.58;100.00;99665.84;5050422;28;20055;-79
2023/09/22 01:41:24;;;;;;;12.55;8.82;;;;;;;13.32;100.00;99662.72;5051531;28;20542;-78
2023/09/22 01:44:05;;;;;;;10.32;8.23;;;;;;;13.29;100.00;99660.50;5054410;28;20052;-78
2023/09/22 01:46:31;;;;;;;9.98;8.02;;;;;;;13.38;100.00;99670.88;5048977;28;20445;-78
2023/09/22 01:49:05;;;;;;;12.20;8.57;;;;;;;13.25;100.00;99678.25;5052840;28;20025;-78
2023/09/22 01:51:38;;;;;;;10.63;8.18;;;;;;;13.18;100.00;99675.72;5054472;28;20032;-79
2023/09/22 01:54:19;;;;;;;10.60;8.30;;;;;;;13.03;100.00;99664.63;5048655;28;20125;-78
2023/09/22 01:57:16;;;;;;;10.40;7.82;;;;;;;13.01;100.00;99667.56;5069063;28;20040;-78
2023/09/22 02:00:33;;;;;;;11.50;8.15;;;;;;;12.95;100.00;99675.81;5036880;28;20082;-78
2023/09/22 02:02:59;;;;;;;10.75;8.00;;;;;;;12.82;100.00;99666.13;5038454;28;20036;-78
2023/09/22 02:05:29;;;;;;;9.95;7.68;;;;;;;12.70;100.00;99668.88;5003085;28;20493;-78
2023/09/22 02:08:10;;;;;;;11.45;8.13;;;;;;;12.68;100.00;99676.41;5054182;28;20027;-77
2023/09/22 02:10:39;;;;;;;11.52;7.38;;;;;;;12.59;100.00;99682.16;5052201;28;20024;-78
2023/09/22 02:13:12;;;;;;;11.55;8.15;;;;;;;12.45;100.00;99683.50;5037130;28;20044;-78
2023/09/22 02:15:49;;;;;;;12.40;8.70;;;;;;;12.50;100.00;99683.59;5053345;28;20071;-79
2023/09/22 02:18:36;;;;;;;10.10;7.95;;;;;;;12.46;100.00;99687.00;5048647;28;20457;-78
2023/09/22 02:21:14;;;;;;;11.23;7.63;;;;;;;12.35;100.00;99684.09;5052199;28;20064;-76
2023/09/22 02:30:08;;;;;;;11.60;7.82;;;;;;;12.14;100.00;99704.44;5846542;22;20056;-78
2023/09/22 02:36:10;;;;;;;10.27;7.57;;;;;;;11.96;100.00;99698.06;5053329;28;20055;-78
2023/09/22 02:45:40;;;;;;;9.57;6.55;;;;;;;11.84;100.00;99705.31;5011164;28;20041;-78
2023/09/22 02:48:09;;;;;;;9.95;6.40;;;;;;;11.75;100.00;99714.81;5002511;28;20041;-79
2023/09/22 02:50:35;;;;;;;10.68;6.82;;;;;;;11.73;100.00;99709.69;4989345;28;20538;-79
2023/09/22 02:53:10;;;;;;;11.40;6.75;;;;;;;11.64;100.00;99711.88;5001055;28;20034;-79
2023/09/22 02:56:10;;;;;;;10.23;6.80;;;;;;;11.53;100.00;99713.50;5003348;28;20574;-77
2023/09/22 02:59:04;;;;;;;9.65;6.22;;;;;;;11.53;100.00;99715.38;5004592;28;20056;-77
2023/09/22 03:01:29;;;;;;;11.88;6.93;;;;;;;11.51;100.00;99712.09;5009541;28;20134;-77
2023/09/22 03:04:09;;;;;;;9.85;6.68;;;;;;;11.46;100.00;99714.66;5005020;28;20030;-77
2023/09/22 03:06:38;;;;;;;9.73;6.35;;;;;;;11.41;100.00;99717.22;5029114;28;20107;-77
2023/09/22 03:09:14;;;;;;;13.60;6.97;;;;;;;11.40;100.00;99731.75;5051079;28;20088;-77
2023/09/22 03:11:40;;;;;;;10.00;6.45;;;;;;;11.24;100.00;99734.03;5047895;28;20417;-77
2023/09/22 03:14:06;;;;;;;9.90;6.13;;;;;;;11.26;100.00;99734.66;5045080;28;20065;-77
2023/09/22 03:16:49;;;;;;;11.73;6.72;;;;;;;11.18;100.00;99716.09;5049713;28;20033;-77
2023/09/22 03:19:14;;;;;;;10.63;6.38;;;;;;;11.19;100.00;99717.75;5045223;28;20024;-77
2023/09/22 03:21:46;;;;;;;11.35;6.80;;;;;;;11.17;100.00;99723.38;5049747;28;20021;-76
2023/09/22 03:24:11;;;;;;;12.90;7.18;;;;;;;11.19;100.00;99712.34;5024797;28;20477;-77
2023/09/22 03:26:40;;;;;;;11.52;7.03;;;;;;;11.20;100.00;99714.84;5049144;28;20091;-77
2023/09/22 03:29:12;;;;;;;13.02;7.53;;;;;;;11.23;100.00;99714.34;5047914;28;20025;-77
2023/09/22 03:32:06;;;;;;;11.90;6.97;;;;;;;11.21;100.00;99713.75;5048767;28;20049;-77
2023/09/22 03:34:32;;;;;;;11.27;7.07;;;;;;;11.22;100.00;99719.97;5046437;28;20051;-77
2023/09/22 03:36:59;;;;;;;11.48;7.22;;;;;;;11.21;100.00;99719.16;5050599;28;20033;-77
2023/09/22 03:39:27;;;;;;;13.52;7.68;;;;;;;11.22;100.00;99719.97;5049758;28;20059;-77
2023/09/22 03:42:06;;;;;;;14.75;7.20;;;;;;;11.16;100.00;99710.94;5049759;28;20120;-77
2023/09/22 03:44:32;;;;;;;15.02;7.68;;;;;;;11.20;100.00;99711.31;5045968;28;20496;-77
2023/09/22 03:47:10;;;;;;;15.00;8.30;;;;;;;11.29;100.00;99720.72;5050082;28;20369;-77
2023/09/22 03:49:45;;;;;;;14.25;7.85;;;;;;;11.34;100.00;99720.03;5047348;28;20040;-76
2023/09/22 03:52:10;;;;;;;14.50;7.67;;;;;;;11.39;100.00;99722.81;5034020;28;20037;-77
2023/09/22 03:54:43;;;;;;;15.95;8.88;;;;;;;11.42;100.00;99718.88;5049165;28;20063;-77
2023/09/22 03:57:10;;;;;;;14.75;8.35;;;;;;;11.43;100.00;99724.00;5043508;28;20112;-76
2023/09/22 03:59:35;;;;;;;13.82;7.90;;;;;;;11.43;100.00;99715.13;5039874;28;20446;-76
2023/09/22 04:02:10;;;;;;;15.50;8.70;;;;;;;11.44;100.00;99714.06;5049177;28;20032;-77
2023/09/22 04:04:38;;;;;;;15.65;8.73;;;;;;;11.40;100.00;99707.50;5048371;28;20040;-77
2023/09/22 04:07:08;;;;;;;14.75;8.20;;;;;;;11.42;100.00;99714.28;5047712;28;20037;-77
2023/09/22 04:09:34;;;;;;;14.10;8.75;;;;;;;11.38;100.00;99710.44;5037773;28;20124;-77
2023/09/22 04:12:02;;;;;;;14.07;8.35;;;;;;;11.31;100.00;99721.28;5050299;28;20036;-76
2023/09/22 04:14:45;;;;;;;17.83;8.73;;;;;;;11.37;100.00;99715.00;5048385;22;20069;-77
2023/09/22 04:17:22;;;;;;;15.55;8.73;;;;;;;11.40;100.00;99724.47;5026009;28;20033;-77
2023/09/22 04:19:50;;;;;;;14.68;8.82;;;;;;;11.46;100.00;99728.94;5038534;22;20056;-77
2023/09/22 04:22:18;;;;;;;17.38;8.55;;;;;;;11.47;100.00;99721.72;5048573;28;20037;-77
2023/09/22 04:24:58;;;;;;;13.43;8.48;;;;;;;11.44;100.00;99728.34;5049948;28;20033;-77
2023/09/22 04:27:28;;;;;;;14.93;8.32;;;;;;;11.51;100.00;99729.09;5047630;28;20072;-76
2023/09/22 04:29:54;;;;;;;14.73;9.18;;;;;;;11.61;100.00;99733.06;5044236;28;20052;-77
2023/09/22 04:32:23;;;;;;;15.70;8.73;;;;;;;11.65;100.00;99731.56;5039943;28;20052;-77
2023/09/22 04:34:48;;;;;;;14.32;8.30;;;;;;;11.72;100.00;99731.47;5046654;28;20090;-77
2023/09/22 04:37:15;;;;;;;12.68;8.15;;;;;;;11.75;100.00;99731.81;5045359;28;20045;-77
2023/09/22 04:39:41;;;;;;;12.05;8.18;;;;;;;11.78;100.00;99736.75;5047179;28;20353;-77
2023/09/22 04:42:06;;;;;;;12.48;8.13;;;;;;;11.83;100.00;99741.44;5045660;28;20064;-76
2023/09/22 04:44:32;;;;;;;13.32;7.68;;;;;;;11.86;100.00;99737.47;5042010;28;20124;-77
2023/09/22 04:47:00;;;;;;;11.85;7.20;;;;;;;11.93;100.00;99744.38;5046103;28;20029;-77
2023/09/22 04:49:25;;;;;;;11.35;7.53;;;;;;;11.98;100.00;99744.53;5048592;28;20108;-76
2023/09/22 04:51:53;;;;;;;10.93;7.15;;;;;;;12.09;100.00;99740.19;5045232;28;20090;-76
2023/09/22 04:54:19;;;;;;;10.55;6.80;;;;;;;12.08;100.00;99738.56;5048136;28;20045;-76
2023/09/22 04:56:45;;;;;;;10.00;6.60;;;;;;;12.11;100.00;99743.47;5042196;28;20109;-76
2023/09/22 04:59:11;;;;;;;11.68;6.68;;;;;;;12.17;100.00;99744.44;5044684;28;20053;-76
2023/09/22 05:01:40;;;;;;;9.00;6.38;;;;;;;12.21;100.00;99744.78;5046306;28;20093;-76
2023/09/22 05:04:05;;;;;;;8.07;5.90;;;;;;;12.22;100.00;99741.84;5046812;28;20037;-76
2023/09/22 05:06:31;;;;;;;8.10;5.70;;;;;;;12.25;100.00;99744.06;5047675;28;20055;-76
2023/09/22 05:08:59;;;;;;;6.30;4.57;;;;;;;12.26;100.00;99745.72;5048647;28;20040;-76
2023/09/22 05:11:25;;;;;;;6.68;5.05;;;;;;;12.30;100.00;99753.34;5049093;28;20037;-76
2023/09/22 05:13:54;;;;;;;7.93;5.05;;;;;;;12.34;100.00;99754.53;5046989;28;20495;-76
2023/09/22 05:16:20;;;;;;;7.45;4.88;;;;;;;12.34;100.00;99759.91;5028818;28;20037;-76
2023/09/22 05:18:45;;;;;;;6.40;4.55;;;;;;;12.38;100.00;99761.91;5042251;28;20066;-77
2023/09/22 05:21:11;;;;;;;5.15;4.18;;;;;;;12.41;100.00;99764.13;5050980;28;20072;-76
2023/09/22 05:23:38;;;;;;;7.00;4.35;;;;;;;12.39;100.00;99766.25;5042319;28;20047;-76
2023/09/22 05:26:07;;;;;;;5.47;3.70;;;;;;;12.48;100.00;99760.47;5043909;28;20029;-76
2023/09/22 05:28:33;;;;;;;5.82;3.90;;;;;;;12.52;100.00;99762.47;5052963;28;20039;-76
2023/09/22 05:31:14;;;;;;;4.78;3.50;;;;;;;12.53;100.00;99761.41;5055281;28;20014;-76
2023/09/22 05:33:39;;;;;;;4.40;3.22;;;;;;;12.55;100.00;99759.28;5058233;28;20032;-76
2023/09/22 05:36:05;;;;;;;6.45;3.20;;;;;;;12.57;100.00;99761.75;5054866;28;20036;-76
2023/09/22 05:38:33;;;;;;;5.13;3.30;;;;;;;12.63;100.00;99765.38;5051739;28;20040;-76
2023/09/22 05:40:59;;;;;;;3.83;2.92;;;;;;;12.63;100.00;99766.19;5050408;28;20045;-75
2023/09/22 05:43:25;;;;;;;3.88;3.00;;;;;;;12.64;100.00;99756.22;5049934;28;20475;-75
2023/09/22 05:48:16;;;;;;;4.93;3.17;;;;;;;12.69;100.00;99769.84;5455549;22;20057;-78
2023/09/22 05:50:42;;;;;;;3.92;2.70;;;;;;;12.70;100.00;99776.91;5020806;28;20045;-77
2023/09/22 05:53:08;;;;;;;4.13;2.47;;;;;;;12.73;100.00;99771.00;5022936;28;20044;-76
2023/09/22 05:55:33;;;;;;;5.38;2.58;;;;;;;12.74;100.00;99783.44;5028160;28;20034;-77
2023/09/22 05:57:59;;;;;;;4.55;2.47;;;;;;;12.74;100.00;99778.88;5024799;28;20401;-77
2023/09/22 06:00:30;;;;;;;3.58;2.40;;;;;;;12.74;100.00;99775.34;5020234;28;20108;-79
2023/09/22 06:02:56;;;;;;;4.45;2.35;;;;;;;12.80;100.00;99771.69;5028964;28;20037;-75
2023/09/22 06:05:24;;;;;;;3.40;2.40;;;;;;;12.82;100.00;99768.75;5019357;28;20096;-75
2023/09/22 06:07:54;;;;;;;5.95;2.63;;;;;;;12.83;100.00;99770.38;5017361;28;20088;-78
2023/09/22 06:10:20;;;;;;;4.30;2.42;;;;;;;13.10;100.00;99770.66;5022063;28;20048;-76
2023/09/22 06:12:46;;;;;;;4.18;2.42;;;;;;;13.17;98.48;99790.25;5028975;28;20021;-76
2023/09/22 06:15:12;;;;;;;4.32;2.28;;;;;;;13.14;98.57;99776.44;5029832;28;20090;-76
2023/09/22 06:17:38;;;;;;;2.72;2.20;;;;;;;13.16;98.00;99780.50;5020276;28;20041;-75
2023/09/22 06:20:15;;;;;;;6.65;2.40;;;;;;;13.19;98.20;99784.59;5023414;28;20187;-75
2023/09/22 06:22:44;;;;;;;3.13;2.13;;;;;;;13.22;97.92;99791.44;5024701;28;20452;-75
2023/09/22 06:25:13;;;;;;;5.47;2.33;;;;;;;13.22;97.76;99794.13;5026739;28;20281;-75
2023/09/22 06:27:38;;;;;;;3.75;2.00;;;;;;;13.24;97.84;99794.72;5018239;28;20092;-75
2023/09/22 06:30:05;;;;;;;2.47;2.05;;;;;;;13.32;97.87;99795.16;5019084;28;20038;-74
2023/09/22 06:32:41;;;;;;;2.75;2.15;;;;;;;13.38;96.98;99792.53;5020407;28;20026;-75
2023/09/22 06:37:49;;;;;;;4.88;2.03;;;;;;;13.56;95.48;99799.66;5048900;28;20045;-76
2023/09/22 06:40:47;;;;;;;3.47;2.28;;;;;;;13.82;94.24;99803.63;5050947;28;20068;-75
2023/09/22 06:43:13;;;;;;;3.65;1.95;;;;;;;14.69;90.02;99801.44;5005363;28;20057;-75
2023/09/22 06:48:36;;;;;;;4.05;1.95;;;;;;;16.71;77.98;99800.63;5061684;23;20059;-76
2023/09/22 06:51:02;;;;;;;2.97;1.75;;;;;;;17.41;74.30;99813.97;5028216;28;20030;-75
2023/09/22 06:53:28;;;;;;;3.00;2.10;;;;;;;17.87;71.76;99807.78;5030546;28;20026;-75
2023/09/22 06:56:06;;;;;;;3.97;2.03;;;;;;;18.02;70.71;99812.44;5029440;28;20025;-75
2023/09/22 06:58:33;;;;;;;4.95;1.77;;;;;;;18.59;69.21;99812.38;5023992;28;20513;-75
2023/09/22 07:01:14;;;;;;;3.70;1.60;;;;;;;19.66;64.02;99814.09;5030294;28;20434;-76
2023/09/22 07:03:40;;;;;;;4.10;1.75;;;;;;;19.96;62.17;99804.06;5030532;28;20025;-75
2023/09/22 07:06:07;;;;;;;4.28;1.95;;;;;;;19.23;64.35;99807.28;5015636;28;20052;-75
2023/09/22 07:08:35;;;;;;;4.45;1.73;;;;;;;20.22;61.26;99809.34;5029449;28;20117;-75
2023/09/22 07:11:05;;;;;;;4.40;2.20;;;;;;;19.89;61.44;99811.78;5030585;28;20035;-76
2023/09/22 07:13:30;;;;;;;2.40;1.70;;;;;;;20.49;59.89;99806.06;5023641;28;20062;-75
2023/09/22 07:15:59;;;;;;;2.25;1.40;;;;;;;21.13;57.51;99810.56;5024572;28;20493;-75
2023/09/22 07:18:25;;;;;;;5.72;1.90;;;;;;;20.87;57.79;99808.13;5031892;28;20026;-75
2023/09/22 07:20:53;;;;;;;3.53;1.90;;;;;;;21.15;55.75;99819.28;5011475;28;20527;-73
2023/09/22 07:23:22;;;;;;;2.88;1.67;;;;;;;21.35;55.41;99808.06;5025217;28;20041;-73
2023/09/22 07:26:00;;;;;;;4.05;1.60;;;;;;;21.34;55.44;99828.34;5029775;28;20026;-73
2023/09/22 07:28:26;;;;;;;6.03;1.50;;;;;;;21.37;55.74;99837.88;5020884;28;20056;-73
2023/09/22 07:30:52;;;;;;;2.67;1.50;;;;;;;21.23;55.09;99831.50;5025689;28;20025;-74
2023/09/22 07:33:17;;;;;;;3.50;1.60;;;;;;;21.07;55.55;99828.13;5027949;28;20535;-73
2023/09/22 07:35:43;;;;;;;2.42;1.50;;;;;;;20.58;56.70;99833.59;5023371;28;20052;-73
2023/09/22 07:38:08;;;;;;;4.03;1.80;;;;;;;20.29;58.29;99842.63;5028615;28;20037;-74
2023/09/22 07:40:40;;;;;;;5.18;1.60;;;;;;;19.57;61.20;99846.66;5024601;28;20021;-73
2023/09/22 07:43:06;;;;;;;1.77;1.48;;;;;;;18.61;64.24;99853.81;5022227;28;20085;-73
2023/09/22 07:45:32;;;;;;;4.50;1.75;;;;;;;17.80;67.29;99849.97;5028635;28;20041;-73
2023/09/22 07:47:57;;;;;;;2.72;1.60;;;;;;;17.03;69.69;99856.00;5030227;28;20049;-73
2023/09/22 07:50:23;;;;;;;3.42;1.58;;;;;;;16.27;73.50;99863.34;5028376;28;20442;-73
2023/09/22 07:52:49;;;;;;;2.28;1.63;;;;;;;15.92;76.06;99854.66;5024368;28;20030;-72
2023/09/22 07:55:15;;;;;;;2.55;1.60;;;;;;;15.99;75.30;99849.81;5023070;28;20094;-73
2023/09/22 07:57:40;;;;;;;3.45;1.90;;;;;;;15.86;76.60;99869.25;5025129;28;20075;-73
2023/09/22 08:00:10;;;;;;;1.73;1.60;;;;;;;15.99;76.23;99870.72;5029229;28;20043;-73
2023/09/22 08:02:36;;;;;;;3.83;1.73;;;;;;;16.63;74.26;99863.63;5022739;28;20045;-72
2023/09/22 08:05:01;;;;;;;5.85;1.73;;;;;;;17.19;71.29;99875.91;5016859;28;20025;-74
2023/09/22 08:07:27;;;;;;;3.08;1.70;;;;;;;17.41;70.93;99870.28;5028094;28;20417;-73
2023/09/22 08:09:53;;;;;;;2.33;1.42;;;;;;;17.71;68.99;99875.00;5023670;28;20024;-73
2023/09/22 08:12:20;;;;;;;3.05;1.42;;;;;;;17.43;67.93;99873.56;5027050;28;20072;-73
2023/09/22 08:14:46;;;;;;;4.47;1.65;;;;;;;17.33;68.69;99874.34;5027390;28;20385;-73
2023/09/22 08:17:11;;;;;;;3.15;1.75;;;;;;;17.63;67.54;99875.53;5027653;28;20076;-73
2023/09/22 08:19:41;;;;;;;4.45;1.52;;;;;;;17.48;66.84;99876.31;5029590;28;20442;-73
2023/09/22 08:22:06;;;;;;;3.35;1.85;;;;;;;17.34;67.94;99878.69;5029129;28;20030;-73
2023/09/22 08:24:33;;;;;;;5.07;1.60;;;;;;;18.17;65.34;99889.81;5029302;28;20461;-74
2023/09/22 08:26:59;;;;;;;2.35;1.63;;;;;;;18.51;63.52;99892.00;5029788;28;20051;-73
2023/09/22 08:29:25;;;;;;;3.30;1.60;;;;;;;19.06;61.18;99885.91;5026965;28;20036;-74
2023/09/22 08:31:50;;;;;;;2.47;1.70;;;;;;;19.07;60.50;99893.81;5030234;28;20032;-73
2023/09/22 08:34:16;;;;;;;2.65;1.50;;;;;;;19.23;60.66;99893.75;5022326;28;20055;-74
2023/09/22 08:36:41;;;;;;;2.97;1.52;;;;;;;19.59;59.08;99898.25;5022868;28;20507;-73
2023/09/22 08:39:08;;;;;;;3.22;1.52;;;;;;;19.82;57.89;99892.09;5028191;28;20453;-74
2023/09/22 08:41:37;;;;;;;2.47;1.50;;;;;;;20.61;55.53;99887.69;5027132;28;20457;-73
2023/09/22 08:44:06;;;;;;;2.80;1.40;;;;;;;20.29;55.24;99895.34;5011183;28;20022;-74
2023/09/22 08:46:33;;;;;;;1.90;1.40;;;;;;;21.33;53.02;99903.38;5004725;28;20140;-74
2023/09/22 08:48:58;;;;;;;1.92;1.30;;;;;;;21.09;51.46;99891.59;5019093;28;20068;-74
2023/09/22 08:51:24;;;;;;;1.92;1.20;;;;;;;19.44;57.24;99899.13;5024553;28;20514;-74
2023/09/22 08:53:53;;;;;;;2.25;1.30;;;;;;;19.00;59.12;99900.66;4989978;28;20034;-74
2023/09/22 08:56:20;;;;;;;4.50;1.30;;;;;;;18.45;61.08;99895.81;5005449;28;20315;-74
2023/09/22 08:58:45;;;;;;;4.53;1.45;;;;;;;19.29;59.32;99892.66;4988242;28;20026;-74
2023/09/22 09:01:11;;;;;;;2.38;1.15;;;;;;;20.55;54.71;99884.22;5026252;28;20802;-73
2023/09/22 09:03:38;;;;;;;2.40;1.38;;;;;;;20.55;53.90;99875.16;5026940;28;20033;-74
2023/09/22 09:06:07;;;;;;;3.80;1.30;;;;;;;21.15;52.32;99890.44;5027695;28;20454;-74
2023/09/22 09:08:34;;;;;;;2.45;1.17;;;;;;;20.48;53.28;99894.66;5029548;28;20132;-74
2023/09/22 09:11:08;;;;;;;2.60;1.30;;;;;;;20.80;53.45;99892.47;5025042;28;20030;-74
2023/09/22 09:13:34;;;;;;;2.40;1.27;;;;;;;20.84;52.78;99888.03;5004286;28;20442;-74
2023/09/22 09:16:06;;;;;;;1.42;1.20;;;;;;;21.31;50.56;99883.69;5027814;28;20018;-74
2023/09/22 09:18:32;;;;;;;2.30;1.20;;;;;;;21.93;48.68;99888.31;5013982;28;20415;-74
2023/09/22 09:21:07;;;;;;;2.03;1.23;;;;;;;20.96;52.00;99887.63;5027271;28;20025;-73
2023/09/22 09:23:32;;;;;;;1.92;1.10;;;;;;;22.02;49.36;99893.16;5023579;28;20059;-74
2023/09/22 09:25:58;;;;;;;1.88;1.10;;;;;;;22.96;46.98;99895.94;5023065;28;20429;-73
2023/09/22 09:28:24;;;;;;;2.10;1.02;;;;;;;22.28;45.98;99896.28;5023456;28;20049;-74
2023/09/22 09:30:51;;;;;;;1.42;0.90;;;;;;;21.40;49.24;99883.84;5000938;28;20026;-74
2023/09/22 09:33:18;;;;;;;1.92;1.05;;;;;;;20.39;50.24;99888.16;5020572;28;20052;-74
2023/09/22 09:35:43;;;;;;;3.35;1.20;;;;;;;19.44;52.50;99889.03;5028880;28;20109;-74
2023/09/22 09:38:09;;;;;;;2.50;1.23;;;;;;;18.75;55.84;99894.97;5031578;28;20026;-73
2023/09/22 09:40:38;;;;;;;2.80;1.15;;;;;;;18.55;56.26;99893.06;5029210;28;20052;-74
2023/09/22 09:43:10;;;;;;;2.17;1.17;;;;;;;17.59;60.03;99888.03;5028632;28;20025;-73
2023/09/22 09:45:59;;;;;;;2.53;1.30;;;;;;;17.80;59.35;99880.72;5027381;28;20031;-73
2023/09/22 09:48:25;;;;;;;2.65;1.20;;;;;;;18.67;57.46;99894.69;5000683;28;20031;-73
2023/09/22 09:50:52;;;;;;;3.00;1.25;;;;;;;19.90;54.25;99889.91;5004706;28;20042;-74
2023/09/22 09:53:36;;;;;;;1.50;1.20;;;;;;;20.18;52.74;99885.63;5018965;28;20102;-73
2023/09/22 09:56:03;;;;;;;1.77;1.20;;;;;;;19.80;54.70;99893.50;5010450;28;20030;-73
2023/09/22 09:58:30;;;;;;;2.72;1.20;;;;;;;20.67;52.47;99881.06;5008050;28;20618;-73
2023/09/22 10:00:56;;;;;;;2.08;1.20;;;;;;;22.01;47.74;99877.81;5010303;28;20116;-74
2023/09/22 10:03:22;;;;;;;1.65;1.20;;;;;;;22.15;47.14;99884.16;5009435;28;20180;-73
2023/09/22 10:05:52;;;;;;;2.20;1.35;;;;;;;21.33;48.40;99878.72;5006515;28;20055;-74
2023/09/22 10:08:18;;;;;;;1.50;1.02;;;;;;;21.83;48.20;99883.00;5014020;28;20022;-74
2023/09/22 10:10:44;;;;;;;1.60;1.20;;;;;;;22.07;47.76;99891.13;5199583;23;20264;-73
2023/09/22 10:13:09;;;;;;;2.30;1.25;;;;;;;21.90;49.43;99885.38;5033437;28;20437;-73
2023/09/22 10:15:55;;;;;;;2.80;1.30;;;;;;;21.93;48.19;99885.59;5070882;28;20024;-73
2023/09/22 10:18:21;;;;;;;2.83;1.20;;;;;;;20.99;50.85;99896.09;5067663;28;20024;-73
2023/09/22 10:20:47;;;;;;;2.05;1.40;;;;;;;20.30;51.66;99891.53;5070372;28;20027;-73
2023/09/22 10:23:19;;;;;;;1.42;1.20;;;;;;;18.79;56.88;99903.38;5070204;28;20029;-73
2023/09/22 10:26:29;;;;;;;1.77;1.25;;;;;;;17.58;60.09;99910.91;5066071;28;20071;-73
2023/09/22 10:28:55;;;;;;;2.67;1.30;;;;;;;17.68;58.60;99894.59;5060777;28;20159;-72
2023/09/22 10:31:20;;;;;;;1.35;1.10;;;;;;;17.56;59.17;99908.41;5069722;28;20025;-73
2023/09/22 10:33:47;;;;;;;1.88;1.38;;;;;;;17.84;59.01;99916.41;5068002;28;20036;-73
2023/09/22 10:36:35;;;;;;;2.65;1.20;;;;;;;19.35;54.44;99912.53;5066195;28;20114;-74
2023/09/22 10:39:03;;;;;;;3.88;1.50;;;;;;;20.13;53.03;99916.50;5049148;28;20502;-73
2023/09/22 10:41:29;;;;;;;3.20;0.90;;;;;;;21.55;47.16;99903.91;5054011;28;20121;-73
2023/09/22 10:43:58;;;;;;;1.77;0.90;;;;;;;21.21;48.37;99913.91;5073765;28;20048;-73
2023/09/22 10:46:24;;;;;;;1.67;0.98;;;;;;;21.69;47.08;99917.72;5060629;23;20073;-73
2023/09/22 10:48:49;;;;;;;1.75;1.10;;;;;;;22.27;45.10;99909.19;5032303;28;20111;-72
2023/09/22 10:51:14;;;;;;;1.20;0.85;;;;;;;22.38;44.98;99937.25;5030777;28;20485;-75
2023/09/22 10:53:40;;;;;;;1.30;1.00;;;;;;;22.36;45.86;99922.22;5046133;23;20053;-73
2023/09/22 10:56:05;;;;;;;3.38;1.00;;;;;;;22.88;43.03;99926.84;5044117;28;20469;-73
2023/09/22 10:58:31;;;;;;;1.98;1.08;;;;;;;22.81;43.02;99917.06;5042607;28;20388;-74
2023/09/22 11:00:58;;;;;;;1.20;1.08;;;;;;;22.67;42.91;99916.22;5027621;28;20020;-73
2023/09/22 11:03:24;;;;;;;1.80;1.10;;;;;;;21.85;46.04;99921.06;5043163;28;20034;-76
2023/09/22 11:06:10;;;;;;;1.25;0.93;;;;;;;21.48;46.69;99926.19;5055051;28;20021;-73
2023/09/22 11:08:52;;;;;;;1.52;1.02;;;;;;;19.96;50.04;99924.25;5046087;28;20025;-75
2023/09/22 11:11:18;;;;;;;2.15;1.05;;;;;;;19.94;50.25;99924.56;5039997;28;20124;-76
2023/09/22 11:13:56;;;;;;;2.33;1.10;;;;;;;20.50;49.83;99919.78;5046877;28;20474;-75
2023/09/22 11:16:21;;;;;;;2.13;0.90;;;;;;;21.49;46.73;99925.06;5041471;28;20047;-75
2023/09/22 11:18:48;;;;;;;1.83;1.10;;;;;;;21.50;48.09;99929.44;5044301;28;20041;-75
2023/09/22 11:21:13;;;;;;;1.65;0.90;;;;;;;20.60;47.74;99907.94;5043562;28;20131;-75
2023/09/22 11:23:39;;;;;;;1.77;1.02;;;;;;;20.03;49.55;99932.97;5044797;28;20392;-74
2023/09/22 11:26:12;;;;;;;1.35;1.00;;;;;;;19.29;50.19;99941.78;5042581;28;20099;-74
2023/09/22 11:28:40;;;;;;;1.33;1.02;;;;;;;19.04;52.01;99951.66;5040991;28;20025;-74
2023/09/22 11:31:17;;;;;;;1.67;1.00;;;;;;;20.55;47.84;99949.81;5046859;28;20116;-73
2023/09/22 11:33:43;;;;;;;2.70;0.95;;;;;;;21.36;44.82;99940.28;5046573;28;20040;-73
2023/09/22 11:36:09;;;;;;;1.10;0.90;;;;;;;21.78;43.13;99935.13;5038288;28;20490;-74
2023/09/22 11:38:35;;;;;;;2.03;1.10;;;;;;;21.98;44.00;99952.41;5039373;28;20090;-73
2023/09/22 11:41:17;;;;;;;1.30;1.02;;;;;;;23.11;41.28;99955.22;5042249;28;20108;-74
2023/09/22 11:43:46;;;;;;;2.22;1.17;;;;;;;21.66;43.16;99965.69;5043608;28;20053;-73
2023/09/22 11:46:27;;;;;;;1.40;0.80;;;;;;;21.61;44.94;99972.03;5042008;28;20069;-73
2023/09/22 11:48:59;;;;;;;1.10;0.73;;;;;;;21.33;45.88;99970.97;5028861;28;20071;-73
2023/09/22 11:51:40;;;;;;;1.55;1.00;;;;;;;20.18;47.15;99974.97;5043796;28;20055;-74
2023/09/22 11:54:09;;;;;;;1.83;1.10;;;;;;;19.22;50.68;99973.97;5041128;28;20052;-75
2023/09/22 11:56:34;;;;;;;1.63;0.98;;;;;;;19.41;50.54;99970.66;5044545;28;20661;-74
2023/09/22 11:59:06;;;;;;;1.17;0.90;;;;;;;19.87;51.53;99980.56;5037938;28;20079;-74
2023/09/22 12:01:32;;;;;;;1.80;0.95;;;;;;;21.59;47.27;99976.97;5037141;28;20032;-74
2023/09/22 12:03:58;;;;;;;1.23;0.88;;;;;;;21.51;45.22;99985.84;5048098;28;20049;-74
2023/09/22 12:06:24;;;;;;;1.20;0.90;;;;;;;21.20;45.97;99983.44;5041119;28;20491;-74
2023/09/22 12:08:49;;;;;;;1.58;0.80;;;;;;;19.95;48.71;99993.66;5044914;28;20055;-73
2023/09/22 12:11:14;;;;;;;2.78;1.20;;;;;;;20.10;49.09;99990.03;5042762;28;20033;-73
2023/09/22 12:13:43;;;;;;;0.93;0.90;;;;;;;19.52;51.57;99991.34;5039631;28;20025;-73
2023/09/22 12:16:08;;;;;;;2.17;1.08;;;;;;;19.04;52.36;99994.47;5037805;28;20480;-73
2023/09/22 12:18:34;;;;;;;3.38;1.13;;;;;;;18.76;53.33;99988.47;5040769;28;20095;-74